全部
Reutte heliport Airport (Reutte, Tyrol, Austria) LOIE 天氣
There is no TAF data available at LOIE or any nearby airports.
There is no METAR data available at LOIE. Showing METAR data for ETHA (26 mi N).
ETHA近期METAR歷史資料(LOIE無資料)
| Date | Time (CEST) | Flight Rules | Wind Dir. | Speed | Type | Height AGL (ft) | Visibility | Temp (°C) | Temp (°F) | Dew Point (°C) | Dew Point (°F) | Rel. Humid. | Pressure | Density Altitude | Remarks |
|---|---|---|---|---|---|---|---|---|---|---|---|---|---|---|---|
| 04-五月 | 00:20 | VFR | 260° | 9 kt | 10000 meters | 13° | 55° | 6° | 42° | 62% | 1016 mb | 2,576 ft | |||
| 03-五月 | 23:20 | VFR | 260° | 7 kt | 10000 meters | 14° | 57° | 6° | 42° | 58% | 1015 mb | 2,725 ft | |||
| 03-五月 | 22:20 | VFR | 290° | 10 kt | 10000 meters | 15° | 59° | 7° | 44° | 59% | 1015 mb | 2,845 ft | |||
| 03-五月 | 21:20 | VFR | Variable | 2 kt | 10000 meters | 16° | 60° | 7° | 44° | 55% | 1014 mb | 2,995 ft | |||
| 03-五月 | 20:20 | VFR | 210° | 1 kt | 10000 meters | 19° | 66° | 4° | 39° | 37% | 1014 mb | 3,355 ft | |||
| 03-五月 | 19:20 | VFR | 340° | 3 kt | 10000 meters | 20° | 68° | 5° | 41° | 37% | 1014 mb | 3,475 ft | |||
| 03-五月 | 18:20 | VFR | 330° | 8 kt | 10000 meters | 20° | 68° | 5° | 41° | 37% | 1013 mb | 3,504 ft | |||
| 03-五月 | 17:20 | VFR | 340° | 9 kt | 10000 meters | 21° | 69° | 4° | 39° | 33% | 1013 mb | 3,624 ft | |||
| 03-五月 | 16:20 | VFR | 330° | 10 kt | 10000 meters | 22° | 71° | 5° | 41° | 33% | 1014 mb | 3,715 ft | |||
| 03-五月 | 15:20 | VFR | 340° | 7 kt | 10000 meters | 23° | 73° | 5° | 41° | 31% | 1014 mb | 3,835 ft | |||
| 03-五月 | 14:20 | VFR | 80° | 7 kt | 10000 meters | 22° | 71° | 4° | 39° | 31% | 1014 mb | 3,715 ft | |||
| 03-五月 | 13:20 | VFR | 60° | 8 kt | 10000 meters | 22° | 71° | 5° | 41° | 33% | 1015 mb | 3,685 ft | |||
| 03-五月 | 12:20 | VFR | 90° | 6 kt | 10000 meters | 21° | 69° | 5° | 41° | 35% | 1015 mb | 3,565 ft | |||
| 03-五月 | 11:20 | VFR | 80° | 5 kt | 10000 meters | 20° | 68° | 6° | 42° | 40% | 1016 mb | 3,416 ft | |||
| 03-五月 | 10:20 | VFR | Variable | 1 kt | 10000 meters | 20° | 68° | 4° | 39° | 35% | 1016 mb | 3,416 ft | |||
| 03-五月 | 09:20 | VFR | Variable | 2 kt | 10000 meters | 17° | 62° | 6° | 42° | 48% | 1017 mb | 3,026 ft | |||
| 03-五月 | 08:20 | VFR | Variable | 2 kt | 10000 meters | 13° | 55° | 7° | 44° | 67% | 1016 mb | 2,576 ft | |||
| 03-五月 | 07:20 | VFR | 250° | 3 kt | 10000 meters | 9° | 48° | 5° | 41° | 76% | 1017 mb | 2,066 ft | |||
| 03-五月 | 06:20 | VFR | 230° | 3 kt | 10000 meters | 7° | 44° | 4° | 39° | 81% | 1017 mb | 1,826 ft | |||
| 03-五月 | 05:20 | VFR | 210° | 6 kt | 10000 meters | 9° | 48° | 5° | 41° | 76% | 1017 mb | 2,066 ft | |||
| 03-五月 | 04:20 | VFR | 230° | 5 kt | 10000 meters | 8° | 46° | 5° | 41° | 81% | 1017 mb | 1,946 ft | |||
| 03-五月 | 03:20 | VFR | 230° | 4 kt | 10000 meters | 9° | 48° | 4° | 39° | 71% | 1017 mb | 2,066 ft | |||
| 03-五月 | 02:20 | VFR | 250° | 3 kt | 10000 meters | 10° | 50° | 4° | 39° | 66% | 1017 mb | 2,186 ft | |||
| 03-五月 | 01:20 | VFR | 240° | 3 kt | 10000 meters | 10° | 50° | 4° | 39° | 66% | 1018 mb | 2,157 ft |
登入
| 您的瀏覽器不支援. 升級您的瀏覽器 |
